createdAt,value
2019-02-20T00:01:55.976Z,29.37
2019-02-20T00:04:25.249Z,28.15
2019-02-20T00:06:54.550Z,22.67
2019-02-20T00:09:25.195Z,24.75
2019-02-20T00:11:54.476Z,24.92
2019-02-20T00:14:23.801Z,20.95
2019-02-20T00:16:53.094Z,24.55
2019-02-20T00:19:22.349Z,19.60
2019-02-20T00:21:51.650Z,20.57
2019-02-20T00:24:20.907Z,23.83
2019-02-20T00:26:50.210Z,24.55
2019-02-20T00:29:19.473Z,25.25
2019-02-20T00:31:48.778Z,22.02
2019-02-20T00:34:18.157Z,21.62
2019-02-20T00:36:47.449Z,19.25
2019-02-20T00:39:18.593Z,24.87
2019-02-20T00:41:47.857Z,23.17
2019-02-20T00:44:32.440Z,23.45
2019-02-20T00:47:35.881Z,19.87
2019-02-20T00:50:05.545Z,21.20
2019-02-20T00:52:59.893Z,21.90
2019-02-20T00:55:29.150Z,23.40
2019-02-20T00:57:58.468Z,25.72
2019-02-20T01:00:27.813Z,25.37
2019-02-20T01:02:57.120Z,22.67
2019-02-20T01:05:26.455Z,22.42
2019-02-20T01:07:55.686Z,20.70
2019-02-20T01:10:25.033Z,20.17
2019-02-20T01:12:54.296Z,24.32
2019-02-20T01:15:23.675Z,22.63
2019-02-20T01:17:52.929Z,20.72
2019-02-20T01:20:22.211Z,20.53
2019-02-20T01:22:59.633Z,22.17
2019-02-20T01:25:22.483Z,20.87
2019-02-20T01:27:51.812Z,22.82
2019-02-20T01:30:21.153Z,22.23
2019-02-20T01:32:50.482Z,19.92
2019-02-20T01:35:20.964Z,21.00
2019-02-20T01:37:50.292Z,19.95
2019-02-20T01:40:19.730Z,23.20
2019-02-20T01:42:49.034Z,19.02
2019-02-20T01:45:20.940Z,21.73
2019-02-20T01:47:50.240Z,26.20
2019-02-20T01:50:22.212Z,22.47
2019-02-20T01:52:51.486Z,18.65
2019-02-20T01:55:23.505Z,22.10
2019-02-20T01:57:52.777Z,22.93
2019-02-20T02:00:22.126Z,22.10
2019-02-20T02:02:51.480Z,22.87
2019-02-20T02:05:20.856Z,22.43
2019-02-20T02:07:50.110Z,22.40
2019-02-20T02:10:20.660Z,24.25
2019-02-20T02:12:49.897Z,22.77
2019-02-20T02:15:20.751Z,22.23
2019-02-20T02:17:50.143Z,24.57
2019-02-20T02:20:19.594Z,28.02
2019-02-20T02:22:48.883Z,23.92
2019-02-20T02:25:18.175Z,29.40
2019-02-20T02:27:47.428Z,20.85
2019-02-20T02:30:16.852Z,27.40
2019-02-20T02:32:46.100Z,17.73
2019-02-20T02:35:15.412Z,24.57
2019-02-20T02:37:44.676Z,33.30
2019-02-20T02:40:13.973Z,24.47
2019-02-20T02:42:43.212Z,25.70
2019-02-20T02:45:12.498Z,23.30
2019-02-20T02:47:41.748Z,32.73
2019-02-20T02:50:11.010Z,24.75
2019-02-20T02:52:40.291Z,24.95
2019-02-20T02:55:09.567Z,31.12
2019-02-20T02:57:38.842Z,26.33
2019-02-20T03:00:08.522Z,28.23
2019-02-20T03:02:37.752Z,30.50
2019-02-20T03:05:07.911Z,27.44
2019-02-20T03:07:37.182Z,26.20
2019-02-20T03:10:07.039Z,29.32
2019-02-20T03:12:36.302Z,25.95
2019-02-20T03:15:06.273Z,30.68
2019-02-20T03:17:35.559Z,23.27
2019-02-20T03:20:05.415Z,31.20
2019-02-20T03:22:34.695Z,29.85
2019-02-20T03:25:03.994Z,30.10
2019-02-20T03:27:33.271Z,24.63
2019-02-20T03:30:02.540Z,25.12
2019-02-20T03:32:33.042Z,24.63
2019-02-20T03:35:02.378Z,29.23
2019-02-20T03:37:31.670Z,26.73
2019-02-20T03:40:00.996Z,30.08
2019-02-20T03:42:30.270Z,25.85
2019-02-20T03:44:59.605Z,26.82
2019-02-20T03:47:28.894Z,26.30
2019-02-20T03:49:58.193Z,26.57
2019-02-20T03:52:27.478Z,27.27
2019-02-20T03:54:56.793Z,25.82
2019-02-20T03:57:26.094Z,30.85
2019-02-20T03:59:55.360Z,25.95
2019-02-20T04:02:24.737Z,26.55
2019-02-20T04:04:54.004Z,27.17
2019-02-20T04:07:23.281Z,23.32
2019-02-20T04:09:52.522Z,25.85
2019-02-20T04:12:21.858Z,22.58
2019-02-20T04:14:51.147Z,24.37
2019-02-20T04:17:20.441Z,28.73
2019-02-20T04:19:49.781Z,22.58
2019-02-20T04:22:19.064Z,27.48
2019-02-20T04:24:48.525Z,25.75
2019-02-20T04:27:17.782Z,25.62
2019-02-20T04:29:47.068Z,24.60
2019-02-20T04:32:16.343Z,25.02
2019-02-20T04:34:45.689Z,25.97
2019-02-20T04:37:14.976Z,23.27
2019-02-20T04:39:44.236Z,26.90
2019-02-20T04:42:13.522Z,26.90
2019-02-20T04:44:42.767Z,25.77
2019-02-20T04:47:12.021Z,25.35
2019-02-20T04:49:41.318Z,29.72
2019-02-20T04:52:10.606Z,28.70
2019-02-20T04:54:39.892Z,22.98
2019-02-20T04:57:09.186Z,27.70
2019-02-20T04:59:38.495Z,27.27
2019-02-20T05:02:07.760Z,30.72
2019-02-20T05:04:37.142Z,25.43
2019-02-20T05:07:06.437Z,28.67
2019-02-20T05:09:35.738Z,22.75
2019-02-20T05:12:05.190Z,22.93
2019-02-20T05:14:34.470Z,29.70
2019-02-20T05:17:03.737Z,29.90
2019-02-20T05:19:33.033Z,28.07
2019-02-20T05:22:02.300Z,29.60
2019-02-20T05:24:31.621Z,28.57
2019-02-20T05:27:00.866Z,28.85
2019-02-20T05:29:30.159Z,29.52
2019-02-20T05:31:59.434Z,29.02
2019-02-20T05:34:28.785Z,28.75
2019-02-20T05:36:58.085Z,23.60
2019-02-20T05:39:27.376Z,30.00
2019-02-20T05:41:56.675Z,27.27
2019-02-20T05:44:25.984Z,30.02
2019-02-20T05:46:55.277Z,26.65
2019-02-20T05:49:24.570Z,24.82
2019-02-20T05:51:53.821Z,28.40
2019-02-20T05:54:23.224Z,27.62
2019-02-20T05:56:52.475Z,25.95
2019-02-20T05:59:21.705Z,26.23
2019-02-20T06:01:50.981Z,28.07
2019-02-20T06:04:20.277Z,31.00
2019-02-20T06:06:49.594Z,31.15
2019-02-20T06:09:18.921Z,30.02
2019-02-20T06:11:48.273Z,36.23
2019-02-20T06:14:17.549Z,34.55
2019-02-20T06:16:46.837Z,31.20
2019-02-20T06:19:16.165Z,31.37
2019-02-20T06:21:45.512Z,34.65
2019-02-20T06:24:14.825Z,32.13
2019-02-20T06:26:44.154Z,29.00
2019-02-20T06:29:13.442Z,32.93
2019-02-20T06:31:42.806Z,32.48
2019-02-20T06:34:12.094Z,35.03
2019-02-20T06:36:41.403Z,27.25
2019-02-20T06:39:10.667Z,33.35
2019-02-20T06:41:39.969Z,31.10
2019-02-20T06:44:09.289Z,33.70
2019-02-20T06:46:38.593Z,32.53
2019-02-20T06:49:07.879Z,31.97
2019-02-20T06:51:37.254Z,34.30
2019-02-20T06:54:06.551Z,36.98
2019-02-20T06:56:35.869Z,31.60
2019-02-20T06:59:05.213Z,40.00
2019-02-20T07:01:34.501Z,41.73
2019-02-20T07:04:03.799Z,34.65
2019-02-20T07:06:43.949Z,36.25
2019-02-20T07:09:41.921Z,36.98
2019-02-20T07:12:31.910Z,42.78
2019-02-20T07:15:25.059Z,41.35
2019-02-20T07:18:30.831Z,41.65
2019-02-20T07:21:35.104Z,43.63
2019-02-20T07:24:33.118Z,38.78
2019-02-20T07:28:07.962Z,37.03
2019-02-20T07:30:37.244Z,35.40
2019-02-20T07:33:06.549Z,38.63
2019-02-20T07:35:35.784Z,39.55
2019-02-20T07:38:05.040Z,40.35
2019-02-20T07:40:34.337Z,40.15
2019-02-20T07:43:03.621Z,41.58
2019-02-20T07:45:35.934Z,41.70
2019-02-20T07:48:05.296Z,44.33
2019-02-20T07:50:34.566Z,42.85
2019-02-20T07:53:03.896Z,44.03
2019-02-20T07:55:33.262Z,46.70
2019-02-20T07:58:02.521Z,46.33
2019-02-20T08:00:31.829Z,47.15
2019-02-20T08:03:01.077Z,44.95
2019-02-20T08:05:30.519Z,53.92
2019-02-20T08:07:59.791Z,43.78
2019-02-20T08:10:29.088Z,44.60
2019-02-20T08:12:58.345Z,46.15
2019-02-20T08:15:27.698Z,44.58
2019-02-20T08:17:56.973Z,45.78
2019-02-20T08:20:26.317Z,43.37
2019-02-20T08:22:55.648Z,43.35
2019-02-20T08:25:24.928Z,42.20
2019-02-20T08:27:54.197Z,46.20
2019-02-20T08:30:23.521Z,41.70
2019-02-20T08:32:52.785Z,45.45
2019-02-20T08:35:22.109Z,41.17
2019-02-20T08:37:51.384Z,40.50
2019-02-20T08:40:20.677Z,45.87
2019-02-20T08:42:50.010Z,44.38
2019-02-20T08:45:19.300Z,44.20
2019-02-20T08:47:48.625Z,42.17
2019-02-20T08:50:17.930Z,48.33
2019-02-20T08:52:47.242Z,42.98
2019-02-20T08:55:18.746Z,42.00
2019-02-20T08:57:47.639Z,44.53
2019-02-20T09:00:16.928Z,41.47
2019-02-20T09:02:46.198Z,44.10
2019-02-20T09:05:15.433Z,44.60
2019-02-20T09:07:44.722Z,43.42
2019-02-20T09:10:14.073Z,41.37
2019-02-20T09:12:43.383Z,48.30
2019-02-20T09:15:13.046Z,49.40
2019-02-20T09:17:42.322Z,47.60
2019-02-20T09:20:11.699Z,51.95
2019-02-20T09:22:40.973Z,48.33
2019-02-20T09:25:19.222Z,49.70
2019-02-20T09:27:41.743Z,50.08
2019-02-20T09:30:12.908Z,46.48
2019-02-20T09:32:42.255Z,41.20
2019-02-20T09:35:11.619Z,42.30
2019-02-20T09:37:40.890Z,41.85
2019-02-20T09:40:12.666Z,42.53
2019-02-20T09:42:43.039Z,42.58
2019-02-20T09:45:12.315Z,36.95
2019-02-20T09:47:41.596Z,40.08
2019-02-20T09:50:10.973Z,45.33
2019-02-20T09:52:40.287Z,38.75
2019-02-20T09:55:10.390Z,36.80
2019-02-20T09:57:39.674Z,37.00
2019-02-20T10:00:11.898Z,40.23
2019-02-20T10:02:41.200Z,41.40
2019-02-20T10:05:10.996Z,38.83
2019-02-20T10:07:40.285Z,46.15
2019-02-20T10:10:09.635Z,43.50
2019-02-20T10:12:38.925Z,35.40
2019-02-20T10:15:08.973Z,46.80
2019-02-20T10:17:38.246Z,37.05
2019-02-20T10:20:08.612Z,41.58
2019-02-20T10:22:37.916Z,40.20
2019-02-20T10:25:07.721Z,42.02
2019-02-20T10:27:37.015Z,39.38
2019-02-20T10:30:08.591Z,35.85
2019-02-20T10:32:37.881Z,35.05
2019-02-20T10:35:08.299Z,42.22
2019-02-20T10:37:37.609Z,34.15
2019-02-20T10:40:07.715Z,36.88
2019-02-20T10:42:37.013Z,36.30
2019-02-20T10:45:06.618Z,39.48
2019-02-20T10:47:35.905Z,39.03
2019-02-20T10:50:06.234Z,38.28
2019-02-20T10:52:37.105Z,35.15
2019-02-20T10:55:06.656Z,35.63
2019-02-20T10:57:36.178Z,39.33
2019-02-20T11:00:08.759Z,37.30
2019-02-20T11:02:38.036Z,35.52
2019-02-20T11:05:07.734Z,43.80
2019-02-20T11:07:37.051Z,41.37
2019-02-20T11:10:06.616Z,40.73
2019-02-20T11:12:35.951Z,39.40
2019-02-20T11:15:05.891Z,36.60
2019-02-20T11:17:37.108Z,34.35
2019-02-20T11:20:06.750Z,36.63
2019-02-20T11:22:38.741Z,32.08
2019-02-20T11:25:08.897Z,35.43
2019-02-20T11:27:39.521Z,35.23
2019-02-20T11:30:11.649Z,33.45
2019-02-20T11:32:40.972Z,37.42
2019-02-20T11:35:10.267Z,43.83
2019-02-20T11:37:39.579Z,30.37
2019-02-20T11:40:09.404Z,31.87
2019-02-20T11:42:38.680Z,33.05
2019-02-20T11:45:08.617Z,30.15
2019-02-20T11:47:37.969Z,34.43
2019-02-20T11:50:08.367Z,30.12
2019-02-20T11:52:38.589Z,30.27
2019-02-20T11:55:08.507Z,26.93
2019-02-20T11:57:37.955Z,32.35
2019-02-20T12:00:09.299Z,30.28
2019-02-20T12:02:38.605Z,30.15
2019-02-20T12:05:08.036Z,24.90
2019-02-20T12:07:37.422Z,31.80
2019-02-20T12:10:08.036Z,31.16
2019-02-20T12:12:37.377Z,28.73
2019-02-20T12:15:07.880Z,29.48
2019-02-20T12:17:37.291Z,23.98
2019-02-20T12:20:06.756Z,22.02
2019-02-20T12:22:36.178Z,23.70
2019-02-20T12:25:05.548Z,19.67
2019-02-20T12:27:35.036Z,27.70
2019-02-20T12:30:04.950Z,19.42
2019-02-20T12:32:35.876Z,22.52
2019-02-20T12:35:05.308Z,22.15
2019-02-20T12:37:34.622Z,20.65
2019-02-20T12:40:05.117Z,18.82
2019-02-20T12:42:34.485Z,19.73
2019-02-20T12:45:03.934Z,17.42
2019-02-20T12:47:33.280Z,21.95
2019-02-20T12:50:02.723Z,21.57
2019-02-20T12:52:32.013Z,20.12
2019-02-20T12:55:01.378Z,17.02
2019-02-20T12:57:30.701Z,21.42
2019-02-20T12:59:59.992Z,19.30
2019-02-20T13:02:29.325Z,17.32
2019-02-20T13:04:58.761Z,20.90
2019-02-20T13:07:28.086Z,19.10
2019-02-20T13:09:57.391Z,20.88
2019-02-20T13:12:26.701Z,18.60
2019-02-20T13:14:55.997Z,21.07
2019-02-20T13:17:25.387Z,22.58
2019-02-20T13:19:56.682Z,23.30
2019-02-20T13:22:25.801Z,21.43
2019-02-20T13:24:55.147Z,21.95
2019-02-20T13:27:24.414Z,18.85
2019-02-20T13:29:53.752Z,19.55
2019-02-20T13:32:23.034Z,20.95
2019-02-20T13:34:52.484Z,14.50
2019-02-20T13:37:21.780Z,18.95
2019-02-20T13:39:52.168Z,17.67
2019-02-20T13:42:21.674Z,24.03
2019-02-20T13:44:50.978Z,21.85
2019-02-20T13:47:20.303Z,16.00
2019-02-20T13:49:49.669Z,16.42
2019-02-20T13:52:19.031Z,15.03
2019-02-20T13:54:48.418Z,15.32
2019-02-20T13:57:18.139Z,16.02
2019-02-20T13:59:47.507Z,16.60
2019-02-20T14:02:16.823Z,18.90
2019-02-20T14:04:46.195Z,18.35
2019-02-20T14:07:15.493Z,20.32
2019-02-20T14:09:44.856Z,18.82
2019-02-20T14:12:14.219Z,18.42
2019-02-20T14:14:43.535Z,18.57
2019-02-20T14:17:12.963Z,22.62
2019-02-20T14:19:42.265Z,19.35
2019-02-20T14:22:11.645Z,18.25
2019-02-20T14:24:40.957Z,15.98
2019-02-20T14:27:11.310Z,17.67
2019-02-20T14:29:40.717Z,15.65
2019-02-20T14:32:10.171Z,15.55
2019-02-20T14:34:42.247Z,17.60
2019-02-20T14:37:11.583Z,16.95
2019-02-20T14:39:41.263Z,14.58
2019-02-20T14:42:10.883Z,15.75
2019-02-20T14:44:40.214Z,17.85
2019-02-20T14:47:09.588Z,14.35
2019-02-20T14:49:38.917Z,17.00
2019-02-20T14:52:08.235Z,20.15
2019-02-20T14:54:37.687Z,17.73
2019-02-20T14:57:07.022Z,19.82
2019-02-20T14:59:37.096Z,18.30
2019-02-20T15:02:06.423Z,14.50
2019-02-20T15:04:35.764Z,15.95
2019-02-20T15:07:05.102Z,12.07
2019-02-20T15:09:34.479Z,11.95
2019-02-20T15:12:03.860Z,10.70
2019-02-20T15:14:34.657Z,10.80
2019-02-20T15:17:04.047Z,12.85
2019-02-20T15:19:33.368Z,14.90
2019-02-20T15:22:02.763Z,11.85
2019-02-20T15:24:32.097Z,11.15
2019-02-20T15:27:01.531Z,10.78
2019-02-20T15:29:31.140Z,12.60
2019-02-20T15:32:00.556Z,11.55
2019-02-20T15:34:29.888Z,11.90
2019-02-20T15:36:59.231Z,16.27
2019-02-20T15:39:28.568Z,29.98
2019-02-20T15:41:57.952Z,12.58
2019-02-20T15:44:27.698Z,12.00
2019-02-20T15:46:57.146Z,13.72
2019-02-20T15:49:26.501Z,13.93
2019-02-20T15:51:55.829Z,15.43
2019-02-20T15:54:25.189Z,11.78
2019-02-20T15:56:54.540Z,15.32
2019-02-20T15:59:23.927Z,18.37
2019-02-20T16:01:53.258Z,12.07
2019-02-20T16:04:22.601Z,12.50
2019-02-20T16:06:51.931Z,10.38
2019-02-20T16:09:21.309Z,12.93
2019-02-20T16:11:50.655Z,11.30
2019-02-20T16:14:19.928Z,16.17
2019-02-20T16:16:49.414Z,13.58
2019-02-20T16:19:18.806Z,18.90
2019-02-20T16:21:54.455Z,13.88
2019-02-20T16:24:23.755Z,13.28
2019-02-20T16:26:53.143Z,11.45
2019-02-20T16:29:22.642Z,12.20
2019-02-20T16:31:52.068Z,12.73
2019-02-20T16:34:21.360Z,14.07
2019-02-20T16:36:50.762Z,15.33
2019-02-20T16:39:20.188Z,19.32
2019-02-20T16:41:49.584Z,19.75
2019-02-20T16:44:18.972Z,24.50
2019-02-20T16:46:48.623Z,20.48
2019-02-20T16:49:18.061Z,17.50
2019-02-20T16:51:47.512Z,16.52
2019-02-20T16:54:16.871Z,16.48
2019-02-20T16:56:46.244Z,18.30
2019-02-20T16:59:15.543Z,19.17
2019-02-20T17:01:45.228Z,22.20
2019-02-20T17:04:14.656Z,21.00
2019-02-20T17:06:43.953Z,20.30
2019-02-20T17:09:13.349Z,23.15
2019-02-20T17:11:42.668Z,21.85
2019-02-20T17:14:12.046Z,20.12
2019-02-20T17:16:41.692Z,17.92
2019-02-20T17:19:11.049Z,19.55
2019-02-20T17:21:40.343Z,17.60
2019-02-20T17:24:09.706Z,15.38
2019-02-20T17:26:38.998Z,17.35
2019-02-20T17:29:08.311Z,19.02
2019-02-20T17:31:38.003Z,17.70
2019-02-20T17:34:07.379Z,19.65
2019-02-20T17:36:36.714Z,18.65
2019-02-20T17:39:07.446Z,22.50
2019-02-20T17:41:36.737Z,21.50
2019-02-20T17:44:06.117Z,25.40
2019-02-20T17:46:35.887Z,24.57
2019-02-20T17:49:05.316Z,24.23
2019-02-20T17:51:34.670Z,24.25
2019-02-20T17:54:04.119Z,19.55
2019-02-20T17:56:33.444Z,18.50
2019-02-20T17:59:02.866Z,16.57
2019-02-20T18:01:32.171Z,19.32
2019-02-20T18:04:01.536Z,18.95
2019-02-20T18:06:30.928Z,20.82
2019-02-20T18:09:00.241Z,21.12
2019-02-20T18:11:29.596Z,29.07
2019-02-20T18:13:58.937Z,39.92
2019-02-20T18:16:28.299Z,32.65
2019-02-20T18:18:57.713Z,32.90
2019-02-20T18:21:27.086Z,29.70
2019-02-20T18:23:56.528Z,28.50
2019-02-20T18:26:26.025Z,30.95
2019-02-20T18:28:55.307Z,29.23
2019-02-20T18:31:24.758Z,29.05
2019-02-20T18:33:54.046Z,54.58
2019-02-20T18:36:23.395Z,38.95
2019-02-20T18:38:52.734Z,30.45
2019-02-20T18:41:22.138Z,30.10
2019-02-20T18:43:51.529Z,24.65
2019-02-20T18:46:20.895Z,30.57
2019-02-20T18:48:50.375Z,24.82
2019-02-20T18:51:19.741Z,24.35
2019-02-20T18:53:49.040Z,25.88
2019-02-20T18:56:18.407Z,23.52
2019-02-20T18:58:47.741Z,23.27
2019-02-20T19:01:17.091Z,21.70
2019-02-20T19:03:46.482Z,23.85
2019-02-20T19:06:15.877Z,23.65
2019-02-20T19:08:57.597Z,22.87
2019-02-20T19:11:43.869Z,29.03
2019-02-20T19:14:21.568Z,27.00
2019-02-20T19:17:44.143Z,29.02
2019-02-20T19:20:26.111Z,35.67
2019-02-20T19:23:09.217Z,42.13
2019-02-20T19:26:19.722Z,33.83
2019-02-20T19:29:25.039Z,29.55
2019-02-20T19:32:38.326Z,29.27
2019-02-20T19:35:39.916Z,21.73
2019-02-20T19:38:59.109Z,22.95
2019-02-20T19:42:07.074Z,24.80
2019-02-20T19:44:58.775Z,21.42
2019-02-20T19:48:07.854Z,23.15
2019-02-20T19:51:13.904Z,42.20
2019-02-20T19:54:22.426Z,24.60
2019-02-20T19:57:17.002Z,27.13
2019-02-20T19:59:59.397Z,25.80
2019-02-20T20:02:57.503Z,23.57
2019-02-20T20:06:09.499Z,25.25
2019-02-20T20:09:19.560Z,24.35
2019-02-20T20:12:32.601Z,23.38
2019-02-20T20:15:32.485Z,22.13
2019-02-20T20:18:29.444Z,21.30
2019-02-20T20:21:20.535Z,22.70
2019-02-20T20:24:30.565Z,21.97
2019-02-20T20:27:42.809Z,20.90
2019-02-20T20:30:46.137Z,20.68
2019-02-20T20:33:52.351Z,19.25
2019-02-20T20:36:46.852Z,18.23
2019-02-20T20:39:56.933Z,18.05
2019-02-20T20:43:04.937Z,21.95
2019-02-20T20:45:58.817Z,21.35
2019-02-20T20:48:45.412Z,23.22
2019-02-20T20:51:39.086Z,25.97
2019-02-20T20:55:00.565Z,20.88
2019-02-20T20:57:52.863Z,22.10
2019-02-20T21:01:04.923Z,21.20
2019-02-20T21:03:35.668Z,22.45
2019-02-20T21:06:34.103Z,22.80
2019-02-20T21:09:43.606Z,24.57
2019-02-20T21:12:45.332Z,23.02
2019-02-20T21:16:02.004Z,23.83
2019-02-20T21:18:45.406Z,23.20
2019-02-20T21:21:20.239Z,22.77
2019-02-20T21:24:26.320Z,23.90
2019-02-20T21:27:29.934Z,22.93
2019-02-20T21:30:34.824Z,22.75
2019-02-20T21:33:43.305Z,24.10
2019-02-20T21:36:23.928Z,25.75
2019-02-20T21:39:34.931Z,22.87
2019-02-20T21:42:43.857Z,27.22
2019-02-20T21:45:45.589Z,25.40
2019-02-20T21:49:01.774Z,25.15
2019-02-20T21:52:10.023Z,27.10
2019-02-20T21:55:20.362Z,25.92
2019-02-20T21:58:33.291Z,24.85
2019-02-20T22:04:04.870Z,25.95
2019-02-20T22:07:13.556Z,25.48
2019-02-20T22:10:26.539Z,25.15
2019-02-20T22:13:24.973Z,25.12
2019-02-20T22:16:30.738Z,25.05
2019-02-20T22:19:44.323Z,27.77
2019-02-20T22:22:39.136Z,28.47
2019-02-20T22:26:00.927Z,27.87
2019-02-20T22:29:09.420Z,26.33
2019-02-20T22:32:18.090Z,25.15
2019-02-20T22:35:18.197Z,28.42
2019-02-20T22:38:15.040Z,24.92
2019-02-20T22:41:08.101Z,26.55
2019-02-20T22:44:30.601Z,29.12
2019-02-20T22:47:17.871Z,26.93
2019-02-20T22:50:40.045Z,28.10
2019-02-20T22:53:30.489Z,28.45
2019-02-20T22:56:32.489Z,26.68
2019-02-20T22:59:24.455Z,31.25
2019-02-20T23:02:19.353Z,19.77
2019-02-20T23:04:59.850Z,30.77
2019-02-20T23:07:49.017Z,28.60
2019-02-20T23:10:54.748Z,27.22
2019-02-20T23:13:40.714Z,28.83
2019-02-20T23:16:10.104Z,27.77
2019-02-20T23:18:39.801Z,27.85
2019-02-20T23:21:09.148Z,29.92
2019-02-20T23:23:38.432Z,30.20
2019-02-20T23:26:07.740Z,28.32
2019-02-20T23:28:37.054Z,29.65
2019-02-20T23:31:06.422Z,30.65
2019-02-20T23:33:35.746Z,31.52
2019-02-20T23:36:05.020Z,29.23
2019-02-20T23:38:34.325Z,32.25
2019-02-20T23:41:03.576Z,29.00
2019-02-20T23:43:32.871Z,32.30
2019-02-20T23:46:02.179Z,29.95
2019-02-20T23:48:31.490Z,32.25
2019-02-20T23:51:00.762Z,30.72
2019-02-20T23:53:30.053Z,32.98
2019-02-20T23:55:59.304Z,32.25
2019-02-20T23:58:28.626Z,31.87
